createdAt,value
2023-01-19T00:00:12.880Z,1.35
2023-01-19T00:02:39.247Z,1.31
2023-01-19T00:05:06.067Z,1.33
2023-01-19T00:07:32.757Z,1.34
2023-01-19T00:09:59.258Z,1.34
2023-01-19T00:12:26.355Z,1.34
2023-01-19T00:14:52.756Z,1.31
2023-01-19T00:17:19.104Z,1.29
2023-01-19T00:19:45.445Z,1.27
2023-01-19T00:22:11.763Z,1.22
2023-01-19T00:24:38.163Z,1.23
2023-01-19T00:27:04.560Z,1.28
2023-01-19T00:29:33.339Z,1.37
2023-01-19T00:32:04.549Z,1.33
2023-01-19T00:34:39.470Z,1.41
2023-01-19T00:37:07.147Z,1.41
2023-01-19T00:39:33.495Z,1.39
2023-01-19T00:42:18.517Z,1.45
2023-01-19T00:44:44.915Z,1.38
2023-01-19T00:47:11.322Z,1.42
2023-01-19T00:49:37.724Z,1.37
2023-01-19T00:52:04.234Z,1.42
2023-01-19T00:54:30.657Z,1.37
2023-01-19T00:56:56.996Z,1.34
2023-01-19T00:59:23.358Z,1.40
2023-01-19T01:01:49.780Z,1.39
2023-01-19T01:04:16.259Z,1.43
2023-01-19T01:06:42.682Z,1.37
2023-01-19T01:09:11.834Z,1.40
2023-01-19T01:11:42.455Z,1.47
2023-01-19T01:14:11.102Z,1.43
2023-01-19T01:16:37.558Z,1.45
2023-01-19T01:19:04.010Z,1.48
2023-01-19T01:21:30.389Z,1.55
2023-01-19T01:23:56.737Z,1.50
2023-01-19T01:26:23.243Z,1.43
2023-01-19T01:28:50.552Z,1.48
2023-01-19T01:31:16.928Z,1.52
2023-01-19T01:33:43.405Z,1.55
2023-01-19T01:36:11.472Z,1.60
2023-01-19T01:38:39.457Z,1.56
2023-01-19T01:41:06.101Z,1.61
2023-01-19T01:43:44.775Z,1.57
2023-01-19T01:46:11.885Z,1.51
2023-01-19T01:48:40.034Z,1.46
2023-01-19T01:51:25.789Z,1.50
2023-01-19T01:54:19.817Z,1.59
2023-01-19T01:56:52.781Z,1.59
2023-01-19T01:59:29.679Z,1.59
2023-01-19T02:02:18.767Z,1.67
2023-01-19T02:04:53.989Z,1.70
2023-01-19T02:07:48.223Z,1.69
2023-01-19T02:10:33.440Z,1.62
2023-01-19T02:13:18.702Z,1.56
2023-01-19T02:15:45.714Z,1.51
2023-01-19T02:18:12.157Z,1.54
2023-01-19T02:20:42.256Z,1.55
2023-01-19T02:23:16.756Z,1.60
2023-01-19T02:25:43.126Z,1.66
2023-01-19T02:28:09.947Z,1.65
2023-01-19T02:30:39.867Z,1.66
2023-01-19T02:33:07.080Z,1.62
2023-01-19T02:35:35.953Z,1.53
2023-01-19T02:38:03.884Z,1.53
2023-01-19T02:40:30.605Z,1.54
2023-01-19T02:43:00.902Z,1.55
2023-01-19T02:45:27.874Z,1.53
2023-01-19T02:47:54.449Z,1.51
2023-01-19T02:50:38.130Z,1.51
2023-01-19T02:53:42.727Z,1.44
2023-01-19T02:56:19.142Z,1.41
2023-01-19T02:59:19.553Z,1.46
2023-01-19T03:02:04.483Z,1.45
2023-01-19T03:04:56.312Z,1.46
2023-01-19T03:07:40.041Z,1.54
2023-01-19T03:10:12.200Z,1.50
2023-01-19T03:12:52.088Z,1.49
2023-01-19T03:15:23.238Z,1.48
2023-01-19T03:17:51.783Z,1.53
2023-01-19T03:20:24.573Z,1.51
2023-01-19T03:23:00.518Z,1.49
2023-01-19T03:25:31.194Z,1.52
2023-01-19T03:27:57.775Z,1.46
2023-01-19T03:30:28.870Z,1.42
2023-01-19T03:33:01.130Z,1.44
2023-01-19T03:35:32.940Z,1.45
2023-01-19T03:38:03.604Z,1.44
2023-01-19T03:40:33.221Z,1.45
2023-01-19T03:43:02.466Z,1.51
2023-01-19T03:45:32.558Z,1.56
2023-01-19T03:47:59.783Z,1.50
2023-01-19T03:50:29.470Z,1.59
2023-01-19T03:53:05.321Z,1.62
2023-01-19T03:55:31.995Z,1.60
2023-01-19T03:57:58.470Z,1.56
2023-01-19T04:00:25.072Z,1.63
2023-01-19T04:02:51.731Z,1.63
2023-01-19T04:05:19.047Z,1.74
2023-01-19T04:07:48.368Z,1.67
2023-01-19T04:10:16.671Z,1.59
2023-01-19T04:12:43.087Z,1.50
2023-01-19T04:15:09.507Z,1.54
2023-01-19T04:17:35.934Z,1.47
2023-01-19T04:20:02.352Z,1.39
2023-01-19T04:22:29.478Z,1.33
2023-01-19T04:24:55.922Z,1.23
2023-01-19T04:27:22.364Z,1.08
2023-01-19T04:29:48.783Z,0.96
2023-01-19T04:32:15.222Z,0.76
2023-01-19T04:34:41.613Z,0.62
2023-01-19T04:37:08.445Z,0.52
2023-01-19T04:39:35.080Z,0.44
2023-01-19T04:42:01.403Z,0.45
2023-01-19T04:44:28.644Z,0.45
2023-01-19T04:46:55.048Z,0.49
2023-01-19T04:49:21.420Z,0.52
2023-01-19T04:51:47.765Z,0.50
2023-01-19T04:54:14.171Z,0.57
2023-01-19T04:56:43.470Z,0.56
2023-01-19T04:59:09.872Z,0.53
2023-01-19T05:01:36.705Z,0.50
2023-01-19T05:04:06.255Z,0.40
2023-01-19T05:06:33.444Z,0.45
2023-01-19T05:08:59.919Z,0.40
2023-01-19T05:11:26.315Z,0.52
2023-01-19T05:13:52.831Z,0.59
2023-01-19T05:16:19.185Z,0.49
2023-01-19T05:18:45.546Z,0.42
2023-01-19T05:21:11.888Z,0.40
2023-01-19T05:23:38.435Z,0.42
2023-01-19T05:26:05.045Z,0.48
2023-01-19T05:28:33.036Z,0.44
2023-01-19T05:30:59.716Z,0.40
2023-01-19T05:33:26.139Z,0.36
2023-01-19T05:35:53.506Z,0.32
2023-01-19T05:38:33.890Z,0.27
2023-01-19T05:41:01.143Z,0.28
2023-01-19T05:43:27.471Z,0.30
2023-01-19T05:45:53.799Z,0.33
2023-01-19T05:48:20.223Z,0.33
2023-01-19T05:50:49.205Z,0.35
2023-01-19T05:53:16.715Z,0.35
2023-01-19T05:55:43.116Z,0.32
2023-01-19T05:58:09.506Z,0.31
2023-01-19T06:00:35.993Z,0.25
2023-01-19T06:03:02.932Z,0.25
2023-01-19T06:05:29.662Z,0.23
2023-01-19T06:07:57.001Z,0.15
2023-01-19T06:10:23.734Z,0.18
2023-01-19T06:12:51.599Z,0.20
2023-01-19T06:15:18.529Z,0.20
2023-01-19T06:17:44.910Z,0.25
2023-01-19T06:20:13.798Z,0.21
2023-01-19T06:22:40.156Z,0.24
2023-01-19T06:25:06.794Z,0.13
2023-01-19T06:27:33.117Z,0.11
2023-01-19T06:29:59.429Z,0.08
2023-01-19T06:32:25.761Z,0.11
2023-01-19T06:34:53.957Z,0.06
2023-01-19T06:37:20.501Z,0.07
2023-01-19T06:39:46.867Z,0.09
2023-01-19T06:42:13.324Z,0.08
2023-01-19T06:44:47.061Z,0.10
2023-01-19T06:47:15.907Z,0.10
2023-01-19T06:49:42.913Z,0.06
2023-01-19T06:52:11.370Z,0.10
2023-01-19T06:54:38.112Z,0.14
2023-01-19T06:57:04.609Z,0.13
2023-01-19T06:59:31.676Z,0.08
2023-01-19T07:01:58.918Z,0.11
2023-01-19T07:04:26.176Z,0.18
2023-01-19T07:06:52.692Z,0.17
2023-01-19T07:09:20.331Z,0.17
2023-01-19T07:11:48.171Z,0.21
2023-01-19T07:14:14.918Z,0.23
2023-01-19T07:16:41.469Z,0.28
2023-01-19T07:19:10.527Z,0.31
2023-01-19T07:21:37.321Z,0.29
2023-01-19T07:24:03.747Z,0.32
2023-01-19T07:26:30.789Z,0.37
2023-01-19T07:28:57.238Z,0.40
2023-01-19T07:31:23.906Z,0.43
2023-01-19T07:33:50.401Z,0.42
2023-01-19T07:36:16.841Z,0.42
2023-01-19T07:38:43.244Z,0.48
2023-01-19T07:41:10.239Z,0.50
2023-01-19T07:43:36.754Z,0.56
2023-01-19T07:46:05.195Z,0.61
2023-01-19T07:48:31.683Z,0.56
2023-01-19T07:51:05.137Z,0.60
2023-01-19T07:53:32.245Z,0.64
2023-01-19T07:55:58.615Z,0.69
2023-01-19T07:58:26.309Z,0.66
2023-01-19T08:00:53.045Z,0.68
2023-01-19T08:03:19.493Z,0.64
2023-01-19T08:05:51.292Z,0.67
2023-01-19T08:08:18.185Z,0.67
2023-01-19T08:10:45.082Z,0.74
2023-01-19T08:13:11.487Z,0.76
2023-01-19T08:15:37.940Z,0.77
2023-01-19T08:18:05.608Z,0.73
2023-01-19T08:20:32.312Z,0.73
2023-01-19T08:23:02.869Z,0.81
2023-01-19T08:25:33.663Z,0.79
2023-01-19T08:28:00.184Z,0.84
2023-01-19T08:30:26.768Z,0.88
2023-01-19T08:32:54.712Z,0.90
2023-01-19T08:35:22.416Z,0.93
2023-01-19T08:37:48.847Z,0.93
2023-01-19T08:40:15.401Z,0.97
2023-01-19T08:42:41.825Z,1.02
2023-01-19T08:45:09.223Z,0.97
2023-01-19T08:47:35.662Z,1.00
2023-01-19T08:50:02.097Z,0.95
2023-01-19T08:52:29.320Z,0.98
2023-01-19T08:54:55.696Z,1.05
2023-01-19T08:57:22.085Z,1.02
2023-01-19T08:59:48.485Z,1.06
2023-01-19T09:02:14.912Z,1.09
2023-01-19T09:04:41.391Z,1.09
2023-01-19T09:07:07.751Z,1.03
2023-01-19T09:09:37.685Z,1.10
2023-01-19T09:12:04.303Z,1.11
2023-01-19T09:14:30.805Z,1.13
2023-01-19T09:16:57.154Z,1.17
2023-01-19T09:19:23.548Z,1.18
2023-01-19T09:21:50.904Z,1.21
2023-01-19T09:24:17.272Z,1.23
2023-01-19T09:26:43.621Z,1.21
2023-01-19T09:29:10.075Z,1.24
2023-01-19T09:31:37.260Z,1.24
2023-01-19T09:34:03.657Z,1.25
2023-01-19T09:36:30.283Z,1.27
2023-01-19T09:38:56.709Z,1.28
2023-01-19T09:41:25.925Z,1.25
2023-01-19T09:43:57.693Z,1.28
2023-01-19T09:46:34.342Z,1.25
2023-01-19T09:49:16.677Z,1.25
2023-01-19T09:51:48.617Z,1.33
2023-01-19T09:54:17.716Z,1.31
2023-01-19T09:56:46.095Z,1.35
2023-01-19T09:59:25.339Z,1.47
2023-01-19T10:02:09.913Z,1.47
2023-01-19T10:04:44.025Z,1.49
2023-01-19T10:07:44.623Z,1.53
2023-01-19T10:10:25.756Z,1.52
2023-01-19T10:13:20.001Z,1.51
2023-01-19T10:15:54.531Z,1.54
2023-01-19T10:18:30.936Z,1.61
2023-01-19T10:21:23.308Z,1.55
2023-01-19T10:24:13.110Z,1.59
2023-01-19T10:26:42.685Z,1.50
2023-01-19T10:29:38.036Z,1.52
2023-01-19T10:32:21.199Z,1.49
2023-01-19T10:34:49.621Z,1.55
2023-01-19T10:37:29.718Z,1.50
2023-01-19T10:40:15.514Z,1.57
2023-01-19T10:42:42.083Z,1.54
2023-01-19T10:45:16.683Z,1.64
2023-01-19T10:47:44.992Z,1.67
2023-01-19T10:50:26.164Z,1.77
2023-01-19T10:52:57.399Z,1.74
2023-01-19T10:55:25.680Z,1.75
2023-01-19T10:57:53.475Z,1.71
2023-01-19T11:00:30.331Z,1.88
2023-01-19T11:02:56.807Z,1.86
2023-01-19T11:05:26.059Z,1.75
2023-01-19T11:07:52.572Z,1.80
2023-01-19T11:10:22.906Z,1.91
2023-01-19T11:13:00.946Z,1.94
2023-01-19T11:15:48.409Z,2.05
2023-01-19T11:18:33.868Z,2.07
2023-01-19T11:21:06.847Z,2.14
2023-01-19T11:23:41.872Z,2.18
2023-01-19T11:26:15.605Z,2.16
2023-01-19T11:28:51.253Z,2.20
2023-01-19T11:31:19.675Z,2.26
2023-01-19T11:33:54.811Z,2.23
2023-01-19T11:36:27.291Z,2.21
2023-01-19T11:38:59.162Z,2.13
2023-01-19T11:41:35.262Z,2.12
2023-01-19T11:44:23.410Z,2.11
2023-01-19T11:46:58.233Z,2.14
2023-01-19T11:49:41.791Z,2.13
2023-01-19T11:52:32.664Z,2.18
2023-01-19T11:55:36.316Z,2.12
2023-01-19T11:58:03.872Z,2.06
2023-01-19T12:00:39.276Z,2.06
2023-01-19T12:03:30.365Z,2.14
2023-01-19T12:06:11.679Z,2.07
2023-01-19T12:08:45.227Z,2.08
2023-01-19T12:11:18.698Z,2.09
2023-01-19T12:13:46.397Z,2.10
2023-01-19T12:16:24.501Z,2.11
2023-01-19T12:19:04.927Z,2.06
2023-01-19T12:21:31.271Z,2.04
2023-01-19T12:24:18.055Z,2.12
2023-01-19T12:27:01.910Z,2.17
2023-01-19T12:29:33.602Z,2.30
2023-01-19T12:32:16.502Z,2.33
2023-01-19T12:34:51.713Z,2.39
2023-01-19T12:37:39.462Z,2.37
2023-01-19T12:40:27.711Z,2.45
2023-01-19T12:43:05.576Z,2.51
2023-01-19T12:45:36.652Z,2.49
2023-01-19T12:48:04.531Z,2.53
2023-01-19T12:50:37.854Z,2.64
2023-01-19T12:53:15.473Z,2.68
2023-01-19T12:55:46.510Z,2.68
2023-01-19T12:58:20.823Z,2.68
2023-01-19T13:00:49.323Z,2.66
2023-01-19T13:03:18.881Z,2.62
2023-01-19T13:05:55.477Z,2.52
2023-01-19T13:08:24.608Z,2.55
2023-01-19T13:10:59.917Z,2.47
2023-01-19T13:13:29.222Z,2.36
2023-01-19T13:15:59.381Z,2.48
2023-01-19T13:18:39.704Z,2.48
2023-01-19T13:21:06.988Z,2.46
2023-01-19T13:23:51.593Z,2.49
2023-01-19T13:26:20.560Z,2.44
2023-01-19T13:28:54.763Z,2.42
2023-01-19T13:31:22.473Z,2.51
2023-01-19T13:33:58.568Z,2.39
2023-01-19T13:36:33.096Z,2.33
2023-01-19T13:39:03.751Z,2.33
2023-01-19T13:41:35.105Z,2.38
2023-01-19T13:44:07.129Z,2.35
2023-01-19T13:46:34.575Z,2.33
2023-01-19T13:49:11.591Z,2.30
2023-01-19T13:51:37.976Z,2.38
2023-01-19T13:54:06.029Z,2.37
2023-01-19T13:56:32.540Z,2.44
2023-01-19T13:59:07.016Z,2.37
2023-01-19T14:01:33.774Z,2.45
2023-01-19T14:04:00.601Z,2.44
2023-01-19T14:06:37.893Z,2.50
2023-01-19T14:09:18.864Z,2.48
2023-01-19T14:11:48.130Z,2.46
2023-01-19T14:14:25.655Z,2.48
2023-01-19T14:16:52.560Z,2.47
2023-01-19T14:19:18.942Z,2.48
2023-01-19T14:21:46.023Z,2.46
2023-01-19T14:24:18.350Z,2.47
2023-01-19T14:26:53.869Z,2.50
2023-01-19T14:29:29.246Z,2.58
2023-01-19T14:32:01.397Z,2.63
2023-01-19T14:34:43.015Z,2.61
2023-01-19T14:37:19.740Z,2.60
2023-01-19T14:39:49.304Z,2.64
2023-01-19T14:42:21.079Z,2.65
2023-01-19T14:44:51.712Z,2.61
2023-01-19T14:47:30.922Z,2.66
2023-01-19T14:50:02.007Z,2.66
2023-01-19T14:52:33.104Z,2.68
2023-01-19T14:55:02.956Z,2.65
2023-01-19T14:57:29.337Z,2.60
2023-01-19T14:59:55.754Z,2.50
2023-01-19T15:02:23.006Z,2.50
2023-01-19T15:04:51.357Z,2.47
2023-01-19T15:07:19.198Z,2.38
2023-01-19T15:09:47.169Z,2.35
2023-01-19T15:12:17.449Z,2.33
2023-01-19T15:14:45.068Z,2.25
2023-01-19T15:17:25.568Z,2.19
2023-01-19T15:19:55.848Z,2.13
2023-01-19T15:22:25.051Z,2.19
2023-01-19T15:24:51.481Z,2.18
2023-01-19T15:27:17.925Z,2.11
2023-01-19T15:29:44.980Z,2.07
2023-01-19T15:32:13.143Z,2.04
2023-01-19T15:34:39.663Z,2.07
2023-01-19T15:37:06.168Z,2.08
2023-01-19T15:39:32.751Z,2.05
2023-01-19T15:42:00.644Z,1.95
2023-01-19T15:44:27.056Z,1.97
2023-01-19T15:46:54.750Z,1.91
2023-01-19T15:49:21.217Z,1.92
2023-01-19T15:51:47.579Z,1.91
2023-01-19T15:54:19.314Z,1.86
2023-01-19T15:56:45.742Z,1.85
2023-01-19T15:59:12.211Z,1.83
2023-01-19T16:01:40.275Z,1.86
2023-01-19T16:04:09.415Z,1.90
2023-01-19T16:06:35.804Z,1.91
2023-01-19T16:09:03.725Z,1.87
2023-01-19T16:11:32.546Z,1.84
2023-01-19T16:13:59.219Z,1.87
2023-01-19T16:16:27.879Z,1.82
2023-01-19T16:18:54.651Z,1.87
2023-01-19T16:21:21.176Z,1.84
2023-01-19T16:23:47.606Z,1.85
2023-01-19T16:26:34.905Z,1.82
2023-01-19T16:29:08.506Z,1.85
2023-01-19T16:31:36.424Z,1.80
2023-01-19T16:34:02.845Z,1.74
2023-01-19T16:36:31.384Z,1.73
2023-01-19T16:38:59.767Z,1.73
2023-01-19T16:41:26.605Z,1.75
2023-01-19T16:43:54.565Z,1.78
2023-01-19T16:46:26.648Z,1.75
2023-01-19T16:48:58.188Z,1.73
2023-01-19T16:51:24.583Z,1.67
2023-01-19T16:53:50.980Z,1.65
2023-01-19T16:56:17.824Z,1.69
2023-01-19T16:58:44.603Z,1.61
2023-01-19T17:01:14.677Z,1.55
2023-01-19T17:03:42.010Z,1.54
2023-01-19T17:06:10.548Z,1.51
2023-01-19T17:08:37.851Z,1.54
2023-01-19T17:11:21.782Z,1.56
2023-01-19T17:13:52.011Z,1.47
2023-01-19T17:16:18.369Z,1.41
2023-01-19T17:18:45.221Z,1.35
2023-01-19T17:21:11.699Z,1.40
2023-01-19T17:23:42.652Z,1.41
2023-01-19T17:26:09.004Z,1.42
2023-01-19T17:28:35.621Z,1.38
2023-01-19T17:31:06.555Z,1.37
2023-01-19T17:33:33.265Z,1.38
2023-01-19T17:36:08.335Z,1.38
2023-01-19T17:38:35.410Z,1.34
2023-01-19T17:41:01.913Z,1.37
2023-01-19T17:43:28.285Z,1.39
2023-01-19T17:45:54.709Z,1.41
2023-01-19T17:48:21.128Z,1.39
2023-01-19T17:50:47.454Z,1.43
2023-01-19T17:53:13.797Z,1.42
2023-01-19T17:55:40.138Z,1.42
2023-01-19T17:58:06.524Z,1.42
2023-01-19T18:00:32.983Z,1.35
2023-01-19T18:02:59.440Z,1.42
2023-01-19T18:05:25.810Z,1.39
2023-01-19T18:07:52.174Z,1.43
2023-01-19T18:10:18.599Z,1.48
2023-01-19T18:12:45.180Z,1.43
2023-01-19T18:15:12.226Z,1.43
2023-01-19T18:17:38.598Z,1.48
2023-01-19T18:20:05.541Z,1.46
2023-01-19T18:22:32.159Z,1.41
2023-01-19T18:24:58.517Z,1.41
2023-01-19T18:27:25.004Z,1.35
2023-01-19T18:29:51.367Z,1.33
2023-01-19T18:32:17.826Z,1.38
2023-01-19T18:34:44.271Z,1.47
2023-01-19T18:37:10.675Z,1.47
2023-01-19T18:39:37.059Z,1.53
2023-01-19T18:42:03.467Z,1.56
2023-01-19T18:44:29.900Z,1.58
2023-01-19T18:46:56.602Z,1.55
2023-01-19T18:49:22.972Z,1.59
2023-01-19T18:51:49.316Z,1.65
2023-01-19T18:54:15.687Z,1.64
2023-01-19T18:56:42.015Z,1.64
2023-01-19T18:59:08.426Z,1.66
2023-01-19T19:01:35.839Z,1.70
2023-01-19T19:04:02.838Z,1.69
2023-01-19T19:06:29.205Z,1.68
2023-01-19T19:08:57.907Z,1.68
2023-01-19T19:11:24.889Z,1.74
2023-01-19T19:13:57.337Z,1.67
2023-01-19T19:16:23.791Z,1.72
2023-01-19T19:18:50.328Z,1.74
2023-01-19T19:21:18.534Z,1.75
2023-01-19T19:23:50.000Z,1.78
2023-01-19T19:26:16.420Z,1.77
2023-01-19T19:28:42.804Z,1.75
2023-01-19T19:31:15.012Z,1.65
2023-01-19T19:33:41.368Z,1.74
2023-01-19T19:36:09.202Z,1.72
2023-01-19T19:38:41.034Z,1.70
2023-01-19T19:41:09.197Z,1.71
2023-01-19T19:43:36.617Z,1.63
2023-01-19T19:46:11.494Z,1.64
2023-01-19T19:48:39.509Z,1.60
2023-01-19T19:51:18.415Z,1.56
2023-01-19T19:53:46.125Z,1.53
2023-01-19T19:56:13.458Z,1.57
2023-01-19T19:58:41.804Z,1.47
2023-01-19T20:01:10.676Z,1.38
2023-01-19T20:03:37.642Z,1.43
2023-01-19T20:06:05.984Z,1.33
2023-01-19T20:08:32.881Z,1.34
2023-01-19T20:11:10.912Z,1.32
2023-01-19T20:13:39.149Z,1.30
2023-01-19T20:16:10.177Z,1.28
2023-01-19T20:18:44.315Z,1.30
2023-01-19T20:21:13.209Z,1.32
2023-01-19T20:23:40.459Z,1.33
2023-01-19T20:26:09.210Z,1.35
2023-01-19T20:28:36.133Z,1.39
2023-01-19T20:31:32.649Z,1.40
2023-01-19T20:34:01.389Z,1.40
2023-01-19T20:36:28.801Z,1.38
2023-01-19T20:38:55.532Z,1.37
2023-01-19T20:41:23.285Z,1.39
2023-01-19T20:43:50.139Z,1.34
2023-01-19T20:46:16.659Z,1.32
2023-01-19T20:48:43.166Z,1.31
2023-01-19T20:51:12.409Z,1.37
2023-01-19T20:53:40.616Z,1.34
2023-01-19T20:56:11.232Z,1.39
2023-01-19T20:58:38.269Z,1.37
2023-01-19T21:01:11.813Z,1.36
2023-01-19T21:03:40.705Z,1.40
2023-01-19T21:06:07.171Z,1.45
2023-01-19T21:08:33.781Z,1.51
2023-01-19T21:11:00.559Z,1.50
2023-01-19T21:13:30.646Z,1.55
2023-01-19T21:15:57.176Z,1.52
2023-01-19T21:18:24.815Z,1.49
2023-01-19T21:20:51.173Z,1.58
2023-01-19T21:23:19.030Z,1.60
2023-01-19T21:25:57.588Z,1.59
2023-01-19T21:28:24.871Z,1.61
2023-01-19T21:30:52.793Z,1.56
2023-01-19T21:33:20.242Z,1.61
2023-01-19T21:35:54.885Z,1.57
2023-01-19T21:38:22.062Z,1.51
2023-01-19T21:40:48.535Z,1.44
2023-01-19T21:43:14.926Z,1.45
2023-01-19T21:45:43.101Z,1.45
2023-01-19T21:48:09.938Z,1.48
2023-01-19T21:50:36.867Z,1.52
2023-01-19T21:53:05.817Z,1.57
2023-01-19T21:55:32.889Z,1.47
2023-01-19T21:57:59.556Z,1.48
2023-01-19T22:00:29.332Z,1.45
2023-01-19T22:03:04.158Z,1.44
2023-01-19T22:05:41.040Z,1.38
2023-01-19T22:08:07.465Z,1.38
2023-01-19T22:10:37.618Z,1.40
2023-01-19T22:13:06.416Z,1.42
2023-01-19T22:15:32.779Z,1.44
2023-01-19T22:17:59.194Z,1.46
2023-01-19T22:20:25.622Z,1.40
2023-01-19T22:22:51.996Z,1.37
2023-01-19T22:25:21.868Z,1.37
2023-01-19T22:27:48.208Z,1.32
2023-01-19T22:30:14.800Z,1.31
2023-01-19T22:32:41.139Z,1.31
2023-01-19T22:35:07.790Z,1.20
2023-01-19T22:37:37.469Z,1.21
2023-01-19T22:40:04.894Z,1.12
2023-01-19T22:42:31.292Z,1.11
2023-01-19T22:44:57.631Z,1.05
2023-01-19T22:47:24.117Z,0.99
2023-01-19T22:49:50.438Z,1.00
2023-01-19T22:52:16.762Z,0.96
2023-01-19T22:54:43.083Z,0.96
2023-01-19T22:57:11.822Z,0.98
2023-01-19T22:59:38.199Z,0.99
2023-01-19T23:02:04.750Z,1.04
2023-01-19T23:04:31.206Z,1.06
2023-01-19T23:06:57.561Z,1.05
2023-01-19T23:09:23.953Z,1.12
2023-01-19T23:11:51.115Z,1.08
2023-01-19T23:14:20.146Z,1.13
2023-01-19T23:16:47.040Z,1.17
2023-01-19T23:19:14.361Z,1.10
2023-01-19T23:21:41.410Z,1.10
2023-01-19T23:24:08.457Z,1.12
2023-01-19T23:26:38.317Z,1.12
2023-01-19T23:29:08.192Z,1.09
2023-01-19T23:31:37.339Z,1.08
2023-01-19T23:34:08.977Z,1.06
2023-01-19T23:36:37.495Z,1.05
2023-01-19T23:39:06.944Z,1.02
2023-01-19T23:41:36.477Z,1.01
2023-01-19T23:44:03.706Z,1.01
2023-01-19T23:46:30.227Z,1.02
2023-01-19T23:48:56.688Z,1.06
2023-01-19T23:51:25.408Z,1.00
2023-01-19T23:53:52.412Z,0.95
2023-01-19T23:56:33.440Z,0.98
2023-01-19T23:59:02.620Z,0.94
